createdAt,value
2017-04-07T00:00:21.409Z,73.32
2017-04-07T00:01:30.639Z,74.75
2017-04-07T00:02:39.627Z,74.65
2017-04-07T00:03:48.602Z,76.08
2017-04-07T00:04:57.572Z,76.84
2017-04-07T00:06:06.546Z,77.51
2017-04-07T00:07:15.770Z,79.32
2017-04-07T00:08:24.746Z,80.8
2017-04-07T00:09:33.720Z,81.37
2017-04-07T00:10:42.697Z,82.04
2017-04-07T00:11:51.679Z,82.8
2017-04-07T00:13:00.902Z,82.7
2017-04-07T00:14:09.885Z,82.99
2017-04-07T00:15:18.871Z,84.42
2017-04-07T00:16:27.847Z,84.99
2017-04-07T00:17:36.905Z,86.13
2017-04-07T00:18:46.185Z,86.22
2017-04-07T00:19:55.190Z,86.99
2017-04-07T00:21:04.177Z,86.99
2017-04-07T00:22:13.151Z,86.22
2017-04-07T00:23:22.158Z,87.08
2017-04-07T00:24:31.389Z,87.37
2017-04-07T00:25:40.365Z,88.32
2017-04-07T00:26:49.345Z,88.18
2017-04-07T00:27:58.320Z,88.46
2017-04-07T00:29:07.296Z,88.75
2017-04-07T00:30:16.522Z,89.14
2017-04-07T00:31:25.515Z,89.23
2017-04-07T00:32:34.489Z,89.89
2017-04-07T00:33:43.464Z,89.89
2017-04-07T00:34:52.445Z,90.37
2017-04-07T00:36:01.764Z,90.66
2017-04-07T00:37:10.733Z,90.66
2017-04-07T00:38:19.705Z,91.7
2017-04-07T00:39:28.691Z,92.08
2017-04-07T00:40:37.668Z,91.61
2017-04-07T00:41:46.892Z,91.7
2017-04-07T00:42:55.864Z,91.89
2017-04-07T00:44:04.833Z,92.08
2017-04-07T00:45:13.805Z,92.46
2017-04-07T00:46:22.782Z,92.36
2017-04-07T00:47:32.046Z,92.46
2017-04-07T00:48:41.026Z,92.36
2017-04-07T00:49:50.001Z,92.94
2017-04-07T00:50:59.075Z,92.75
2017-04-07T00:52:08.065Z,92.84
2017-04-07T00:53:17.406Z,93.23
2017-04-07T00:54:26.349Z,93.23
2017-04-07T00:55:35.471Z,93.6
2017-04-07T00:56:44.520Z,92.65
2017-04-07T00:57:53.531Z,93.13
2017-04-07T00:59:02.879Z,93.41
2017-04-07T01:00:11.833Z,93.6
2017-04-07T01:01:20.783Z,93.6
2017-04-07T01:02:29.826Z,93.23
2017-04-07T01:03:39.405Z,93.41
2017-04-07T01:04:50.356Z,93.23
2017-04-07T01:06:00.979Z,93.32
2017-04-07T01:07:11.761Z,93.23
2017-04-07T01:08:21.036Z,93.23
2017-04-07T01:09:29.990Z,93.46
2017-04-07T01:10:39.199Z,93.55
2017-04-07T01:11:48.403Z,94.18
2017-04-07T01:12:58.105Z,93.51
2017-04-07T01:14:07.330Z,93.32
2017-04-07T01:15:16.302Z,93.27
2017-04-07T01:16:25.508Z,93.65
2017-04-07T01:17:34.463Z,93.75
2017-04-07T01:18:43.421Z,94.03
2017-04-07T01:19:52.604Z,93.13
2017-04-07T01:21:02.836Z,93.13
2017-04-07T01:22:12.036Z,93.75
2017-04-07T01:23:20.984Z,93.55
2017-04-07T01:24:30.373Z,93.18
2017-04-07T01:25:40.342Z,93.37
2017-04-07T01:26:49.535Z,93.55
2017-04-07T01:27:59.147Z,93.18
2017-04-07T01:29:10.369Z,93.41
2017-04-07T01:30:20.528Z,93.27
2017-04-07T01:31:31.228Z,93.23
2017-04-07T01:32:40.185Z,93.6
2017-04-07T01:33:49.438Z,93.84
2017-04-07T01:34:58.455Z,93.41
2017-04-07T01:36:08.422Z,92.89
2017-04-07T01:37:17.369Z,93.55
2017-04-07T01:38:26.494Z,93.55
2017-04-07T01:39:35.709Z,93.37
2017-04-07T01:40:44.656Z,92.84
2017-04-07T01:41:53.607Z,93.65
2017-04-07T01:43:02.645Z,93.27
2017-04-07T01:44:11.603Z,93.37
2017-04-07T01:45:21.279Z,92.65
2017-04-07T01:46:30.291Z,92.61
2017-04-07T01:47:39.272Z,92.84
2017-04-07T01:48:48.792Z,92.36
2017-04-07T01:49:57.753Z,92.94
2017-04-07T01:51:07.041Z,92.46
2017-04-07T01:52:16.311Z,92.84
2017-04-07T01:53:25.510Z,91.8
2017-04-07T01:54:34.694Z,92.46
2017-04-07T01:55:44.022Z,92.56
2017-04-07T01:56:53.240Z,91.7
2017-04-07T01:58:02.190Z,91.8
2017-04-07T01:59:11.236Z,91.89
2017-04-07T02:00:20.190Z,90.18
2017-04-07T02:01:29.145Z,91.32
2017-04-07T02:02:38.440Z,90.08
2017-04-07T02:03:47.772Z,91.03
2017-04-07T02:04:57.520Z,90.47
2017-04-07T02:06:06.527Z,91.7
2017-04-07T02:07:15.482Z,91.22
2017-04-07T02:08:24.720Z,91.51
2017-04-07T02:09:33.674Z,92.56
2017-04-07T02:10:43.410Z,92.46
2017-04-07T02:11:52.935Z,90.37
2017-04-07T02:13:01.974Z,91.03
2017-04-07T02:14:11.200Z,91.32
2017-04-07T02:15:20.151Z,91.03
2017-04-07T02:16:29.104Z,90.37
2017-04-07T02:17:38.147Z,90.66
2017-04-07T02:18:47.105Z,91.51
2017-04-07T02:19:56.377Z,91.13
2017-04-07T02:21:05.322Z,90.18
2017-04-07T02:22:14.284Z,90.66
2017-04-07T02:23:23.240Z,91.32
2017-04-07T02:24:32.191Z,90.75
2017-04-07T02:25:41.481Z,91.13
2017-04-07T02:26:50.433Z,91.13
2017-04-07T02:27:59.386Z,90.56
2017-04-07T02:29:08.345Z,91.32
2017-04-07T02:30:17.301Z,91.7
2017-04-07T02:31:26.553Z,92.27
2017-04-07T02:32:35.505Z,92.36
2017-04-07T02:33:44.459Z,92.56
2017-04-07T02:34:53.504Z,91.51
2017-04-07T02:36:02.456Z,92.36
2017-04-07T02:37:11.666Z,92.36
2017-04-07T02:38:20.617Z,92.27
2017-04-07T02:39:29.566Z,90.18
2017-04-07T02:40:38.603Z,90.37
2017-04-07T02:41:47.562Z,91.32
2017-04-07T02:42:56.821Z,91.13
2017-04-07T02:44:05.798Z,89.8
2017-04-07T02:45:14.751Z,89.89
2017-04-07T02:46:23.706Z,90.18
2017-04-07T02:47:32.656Z,90.56
2017-04-07T02:48:41.958Z,90.18
2017-04-07T02:49:51.000Z,90.28
2017-04-07T02:50:59.952Z,90.28
2017-04-07T02:52:08.917Z,90.28
2017-04-07T02:53:17.960Z,90.28
2017-04-07T02:54:27.211Z,90.28
2017-04-07T02:55:36.163Z,90.37
2017-04-07T02:56:45.129Z,90.37
2017-04-07T02:57:54.075Z,91.32
2017-04-07T02:59:03.034Z,90.47
2017-04-07T03:00:12.560Z,91.22
2017-04-07T03:01:21.514Z,91.32
2017-04-07T03:02:30.465Z,90.94
2017-04-07T03:03:39.417Z,91.42
2017-04-07T03:04:48.450Z,90.56
2017-04-07T03:05:57.737Z,90.84
2017-04-07T03:07:06.686Z,91.32
2017-04-07T03:08:15.640Z,90.56
2017-04-07T03:09:24.593Z,90.47
2017-04-07T03:10:33.551Z,91.32
2017-04-07T03:11:42.782Z,91.99
2017-04-07T03:12:51.735Z,91.8
2017-04-07T03:14:00.685Z,91.7
2017-04-07T03:15:09.817Z,90.56
2017-04-07T03:16:18.771Z,89.8
2017-04-07T03:17:28.295Z,90.18
2017-04-07T03:18:37.248Z,91.32
2017-04-07T03:19:46.197Z,90.18
2017-04-07T03:20:55.149Z,90.56
2017-04-07T03:22:04.098Z,91.32
2017-04-07T03:23:13.362Z,90.37
2017-04-07T03:24:22.322Z,90.37
2017-04-07T03:25:31.365Z,90.75
2017-04-07T03:26:40.660Z,90.18
2017-04-07T03:27:49.613Z,89.7
2017-04-07T03:28:58.824Z,89.23
2017-04-07T03:30:07.779Z,89.99
2017-04-07T03:31:16.732Z,90.47
2017-04-07T03:32:25.687Z,89.99
2017-04-07T03:33:34.732Z,90.18
2017-04-07T03:34:43.933Z,90.28
2017-04-07T03:35:52.893Z,90.47
2017-04-07T03:37:01.844Z,90.37
2017-04-07T03:38:10.805Z,91.51
2017-04-07T03:39:19.844Z,92.46
2017-04-07T03:40:29.064Z,91.32
2017-04-07T03:41:38.018Z,91.32
2017-04-07T03:42:46.999Z,91.22
2017-04-07T03:43:55.944Z,91.32
2017-04-07T03:45:04.908Z,90.47
2017-04-07T03:46:14.107Z,91.32
2017-04-07T03:47:23.056Z,90.08
2017-04-07T03:48:35.286Z,89.8
2017-04-07T03:49:44.251Z,89.99
2017-04-07T03:50:53.207Z,89.99
2017-04-07T03:52:02.509Z,89.61
2017-04-07T03:53:11.476Z,89.51
2017-04-07T03:54:20.430Z,89.99
2017-04-07T03:55:29.469Z,89.23
2017-04-07T03:56:38.537Z,90.18
2017-04-07T03:57:47.790Z,90.28
2017-04-07T03:58:56.738Z,89.61
2017-04-07T04:00:05.687Z,89.89
2017-04-07T04:01:14.735Z,89.42
2017-04-07T04:02:23.689Z,88.66
2017-04-07T04:03:32.946Z,90.28
2017-04-07T04:04:41.895Z,90.18
2017-04-07T04:05:50.846Z,89.32
2017-04-07T04:06:59.800Z,89.8
2017-04-07T04:08:08.750Z,90.18
2017-04-07T04:09:18.006Z,90.47
2017-04-07T04:10:26.987Z,91.32
2017-04-07T04:11:36.031Z,91.32
2017-04-07T04:12:45.071Z,91.22
2017-04-07T04:13:54.021Z,91.32
2017-04-07T04:15:03.363Z,90.75
2017-04-07T04:16:12.330Z,90.47
2017-04-07T04:17:21.371Z,89.42
2017-04-07T04:18:30.410Z,89.8
2017-04-07T04:19:39.364Z,89.7
2017-04-07T04:20:48.623Z,89.51
2017-04-07T04:21:57.576Z,89.7
2017-04-07T04:23:06.527Z,89.61
2017-04-07T04:24:15.561Z,90.56
2017-04-07T04:25:24.601Z,90.47
2017-04-07T04:26:33.940Z,90.37
2017-04-07T04:27:42.892Z,91.13
2017-04-07T04:28:51.853Z,90.66
2017-04-07T04:30:00.804Z,90.37
2017-04-07T04:31:09.847Z,90.28
2017-04-07T04:32:19.097Z,90.37
2017-04-07T04:33:28.048Z,90.47
2017-04-07T04:34:37.010Z,90.37
2017-04-07T04:35:45.966Z,90.56
2017-04-07T04:36:54.922Z,90.37
2017-04-07T04:38:04.261Z,89.14
2017-04-07T04:39:13.213Z,89.51
2017-04-07T04:40:22.166Z,89.23
2017-04-07T04:41:31.446Z,89.32
2017-04-07T04:42:40.413Z,89.65
2017-04-07T04:43:49.673Z,89.61
2017-04-07T04:44:58.619Z,89.8
2017-04-07T04:46:07.569Z,88.32
2017-04-07T04:47:16.523Z,88.18
2017-04-07T04:48:25.474Z,89.65
2017-04-07T04:49:34.726Z,89.47
2017-04-07T04:50:43.763Z,88.51
2017-04-07T04:51:52.722Z,88.89
2017-04-07T04:53:01.681Z,89.08
2017-04-07T04:54:10.636Z,89.75
2017-04-07T04:55:19.894Z,87.94
2017-04-07T04:56:28.846Z,88.18
2017-04-07T04:57:37.887Z,88.32
2017-04-07T04:58:46.840Z,88.32
2017-04-07T04:59:55.880Z,88.13
2017-04-07T05:01:05.130Z,88.79
2017-04-07T05:02:14.086Z,87.56
2017-04-07T05:03:23.038Z,86.57
2017-04-07T05:04:31.988Z,87.04
2017-04-07T05:05:40.944Z,86.85
2017-04-07T05:06:50.141Z,87.32
2017-04-07T05:07:59.182Z,87.65
2017-04-07T05:09:08.225Z,87.18
2017-04-07T05:10:17.297Z,86.9
2017-04-07T05:11:26.258Z,87.23
2017-04-07T05:12:35.491Z,87.56
2017-04-07T05:13:44.441Z,86.7
2017-04-07T05:14:53.393Z,87.18
2017-04-07T05:16:02.344Z,87.08
2017-04-07T05:17:11.380Z,87.56
2017-04-07T05:18:20.669Z,88.23
2017-04-07T05:19:29.616Z,86.09
2017-04-07T05:20:38.567Z,87.56
2017-04-07T05:21:47.522Z,87.9
2017-04-07T05:22:56.566Z,88.51
2017-04-07T05:24:05.770Z,87.56
2017-04-07T05:25:14.725Z,87.56
2017-04-07T05:26:23.675Z,88.13
2017-04-07T05:27:32.623Z,87.65
2017-04-07T05:28:41.578Z,88.13
2017-04-07T05:29:50.826Z,88.04
2017-04-07T05:30:59.775Z,87.46
2017-04-07T05:32:08.730Z,87.52
2017-04-07T05:33:17.693Z,88.89
2017-04-07T05:34:26.636Z,88.99
2017-04-07T05:35:35.890Z,89.84
2017-04-07T05:36:45.249Z,90.08
2017-04-07T05:37:54.197Z,90.32
2017-04-07T05:39:03.150Z,90.13
2017-04-07T05:40:12.104Z,90.42
2017-04-07T05:41:21.357Z,89.56
2017-04-07T05:42:30.309Z,88.79
2017-04-07T05:43:39.348Z,89.18
2017-04-07T05:44:48.303Z,88.99
2017-04-07T05:45:57.257Z,87.46
2017-04-07T05:47:06.458Z,87.75
2017-04-07T05:48:15.411Z,88.13
2017-04-07T05:49:24.452Z,88.28
2017-04-07T05:50:33.400Z,89.18
2017-04-07T05:51:42.352Z,88.51
2017-04-07T05:52:51.555Z,89.84
2017-04-07T05:54:00.534Z,89.18
2017-04-07T05:55:09.574Z,89.18
2017-04-07T05:56:18.523Z,88.42
2017-04-07T05:57:27.564Z,88.7
2017-04-07T05:58:36.765Z,88.13
2017-04-07T05:59:45.724Z,88.04
2017-04-07T06:00:55.333Z,87.75
2017-04-07T06:02:04.294Z,88.7
2017-04-07T06:03:13.244Z,88.32
2017-04-07T06:04:22.500Z,88.7
2017-04-07T06:05:31.456Z,88.89
2017-04-07T06:06:40.503Z,88.42
2017-04-07T06:07:49.462Z,88.13
2017-04-07T06:08:58.721Z,88.51
2017-04-07T06:10:08.164Z,88.13
2017-04-07T06:11:17.121Z,87.85
2017-04-07T06:12:26.085Z,88.13
2017-04-07T06:13:35.094Z,87.75
2017-04-07T06:14:44.266Z,87.94
2017-04-07T06:15:53.654Z,88.04
2017-04-07T06:17:02.887Z,88.04
2017-04-07T06:18:11.853Z,89.27
2017-04-07T06:19:21.165Z,89.23
2017-04-07T06:20:30.117Z,89.18
2017-04-07T06:21:39.463Z,89.27
2017-04-07T06:22:48.426Z,89.27
2017-04-07T06:23:57.483Z,89.65
2017-04-07T06:25:06.438Z,89.37
2017-04-07T06:26:15.393Z,88.79
2017-04-07T06:27:24.650Z,89.84
2017-04-07T06:28:33.652Z,89.56
2017-04-07T06:29:42.692Z,89.65
2017-04-07T06:30:51.644Z,90.32
2017-04-07T06:32:00.605Z,90.51
2017-04-07T06:33:09.836Z,90.32
2017-04-07T06:34:18.790Z,90.42
2017-04-07T06:35:27.745Z,89.47
2017-04-07T06:36:36.696Z,89.47
2017-04-07T06:37:45.672Z,89.89
2017-04-07T06:38:54.876Z,90.42
2017-04-07T06:40:04.007Z,90.61
2017-04-07T06:41:12.960Z,89.99
2017-04-07T06:42:21.914Z,90.51
2017-04-07T06:43:30.984Z,90.51
2017-04-07T06:44:40.191Z,90.22
2017-04-07T06:45:49.145Z,90.61
2017-04-07T06:46:58.108Z,90.22
2017-04-07T06:48:07.053Z,90.8
2017-04-07T06:49:16.005Z,90.42
2017-04-07T06:50:25.216Z,90.61
2017-04-07T06:51:34.200Z,90.8
2017-04-07T06:52:43.161Z,90.22
2017-04-07T06:53:52.117Z,90.51
2017-04-07T06:55:01.397Z,89.65
2017-04-07T06:56:10.602Z,89.37
2017-04-07T06:57:19.556Z,88.23
2017-04-07T06:58:28.511Z,88.6
2017-04-07T06:59:37.545Z,87.85
2017-04-07T07:00:46.503Z,88.13
2017-04-07T07:01:55.708Z,88.51
2017-04-07T07:03:04.659Z,88.79
2017-04-07T07:04:13.783Z,88.79
2017-04-07T07:05:22.738Z,88.7
2017-04-07T07:06:31.692Z,89.84
2017-04-07T07:07:40.944Z,88.04
2017-04-07T07:08:49.898Z,88.23
2017-04-07T07:09:58.851Z,89.37
2017-04-07T07:11:08.133Z,88.89
2017-04-07T07:12:17.173Z,88.04
2017-04-07T07:13:26.378Z,88.23
2017-04-07T07:14:35.327Z,88.13
2017-04-07T07:15:44.360Z,87.56
2017-04-07T07:16:53.312Z,87.37
2017-04-07T07:18:02.264Z,87.75
2017-04-07T07:19:11.471Z,87.18
2017-04-07T07:20:20.423Z,88.04
2017-04-07T07:21:29.470Z,87.94
2017-04-07T07:22:38.600Z,88.18
2017-04-07T07:23:47.670Z,87.79
2017-04-07T07:24:56.919Z,87.7
2017-04-07T07:26:05.877Z,87.51
2017-04-07T07:27:14.916Z,87.41
2017-04-07T07:28:23.868Z,87.32
2017-04-07T07:29:32.817Z,87.03
2017-04-07T07:30:42.027Z,86.94
2017-04-07T07:31:50.991Z,87.23
2017-04-07T07:32:59.942Z,87.6
2017-04-07T07:34:08.898Z,87.7
2017-04-07T07:35:17.939Z,88.08
2017-04-07T07:36:27.152Z,87.7
2017-04-07T07:37:36.516Z,87.89
2017-04-07T07:38:45.462Z,87.79
2017-04-07T07:39:54.507Z,86.65
2017-04-07T07:41:03.461Z,86.18
2017-04-07T07:42:12.665Z,85.32
2017-04-07T07:43:21.705Z,86.46
2017-04-07T07:44:30.923Z,86.94
2017-04-07T07:45:39.879Z,86.84
2017-04-07T07:46:48.916Z,87.55
2017-04-07T07:47:58.117Z,86.36
2017-04-07T07:49:07.075Z,86.08
2017-04-07T07:50:16.027Z,86.36
2017-04-07T07:51:25.068Z,86.94
2017-04-07T07:52:34.018Z,86.08
2017-04-07T07:53:43.227Z,86.22
2017-04-07T07:54:52.176Z,86.79
2017-04-07T07:56:01.126Z,86.12
2017-04-07T07:57:10.080Z,86.79
2017-04-07T07:58:19.033Z,86.22
2017-04-07T07:59:28.232Z,86.32
2017-04-07T08:00:37.185Z,86.22
2017-04-07T08:01:46.140Z,87.07
2017-04-07T08:02:55.091Z,87.36
2017-04-07T08:04:04.040Z,85.55
2017-04-07T08:05:13.331Z,86.41
2017-04-07T08:06:22.289Z,86.79
2017-04-07T08:07:31.235Z,86.79
2017-04-07T08:08:40.189Z,86.79
2017-04-07T08:09:49.231Z,87.36
2017-04-07T08:10:58.521Z,86.98
2017-04-07T08:12:07.563Z,86.51
2017-04-07T08:13:16.521Z,86.6
2017-04-07T08:14:25.808Z,86.6
2017-04-07T08:15:34.757Z,86.22
2017-04-07T08:16:44.010Z,86.79
2017-04-07T08:17:52.966Z,87.36
2017-04-07T08:19:02.009Z,86.88
2017-04-07T08:20:10.965Z,86.88
2017-04-07T08:21:19.925Z,86.32
2017-04-07T08:22:29.177Z,85.17
2017-04-07T08:23:38.134Z,85.74
2017-04-07T08:24:47.088Z,86.51
2017-04-07T08:25:56.120Z,87.36
2017-04-07T08:27:05.077Z,87.74
2017-04-07T08:28:14.288Z,87.74
2017-04-07T08:29:23.566Z,87.17
2017-04-07T08:30:32.522Z,87.55
2017-04-07T08:31:41.557Z,87.65
2017-04-07T08:32:50.508Z,87.17
2017-04-07T08:33:59.713Z,87.07
2017-04-07T08:35:08.663Z,87.07
2017-04-07T08:36:17.616Z,87.55
2017-04-07T08:37:26.572Z,88.41
2017-04-07T08:38:35.529Z,89.17
2017-04-07T08:39:44.734Z,89.55
2017-04-07T08:40:53.690Z,89.07
2017-04-07T08:42:02.731Z,88.22
2017-04-07T08:43:11.857Z,88.79
2017-04-07T08:44:20.809Z,89.26
2017-04-07T08:45:30.092Z,88.98
2017-04-07T08:46:39.048Z,88.89
2017-04-07T08:47:48.000Z,88.6
2017-04-07T08:48:56.947Z,89.36
2017-04-07T08:50:05.901Z,88.79
2017-04-07T08:51:15.187Z,88.6
2017-04-07T08:52:24.143Z,88.6
2017-04-07T08:53:33.093Z,88.6
2017-04-07T08:54:42.046Z,89.07
2017-04-07T08:55:51.001Z,89.55
2017-04-07T08:57:00.204Z,89.46
2017-04-07T08:58:09.160Z,89.65
2017-04-07T08:59:18.109Z,89.65
2017-04-07T09:00:27.069Z,89.46
2017-04-07T09:01:36.019Z,89.55
2017-04-07T09:02:45.272Z,89.07
2017-04-07T09:03:54.226Z,89.75
2017-04-07T09:05:03.174Z,89.75
2017-04-07T09:06:12.134Z,90.7
2017-04-07T09:07:21.177Z,90.22
2017-04-07T09:08:30.388Z,89.94
2017-04-07T09:09:39.344Z,89.07
2017-04-07T09:10:48.387Z,88.98
2017-04-07T09:11:57.663Z,89.36
2017-04-07T09:13:06.624Z,89.36
2017-04-07T09:14:16.148Z,88.7
2017-04-07T09:15:25.096Z,88.41
2017-04-07T09:16:34.052Z,88.17
2017-04-07T09:17:43.000Z,88.41
2017-04-07T09:18:52.039Z,89.03
2017-04-07T09:20:01.300Z,87.84
2017-04-07T09:21:10.256Z,87.65
2017-04-07T09:22:19.206Z,86.41
2017-04-07T09:23:28.159Z,86.32
2017-04-07T09:24:37.115Z,86.6
2017-04-07T09:25:46.329Z,86.98
2017-04-07T09:26:55.277Z,87.17
2017-04-07T09:28:04.233Z,86.6
2017-04-07T09:29:13.188Z,87.46
2017-04-07T09:30:22.142Z,87.84
2017-04-07T09:31:31.399Z,87.5
2017-04-07T09:32:40.356Z,88.03
2017-04-07T09:33:49.305Z,87.69
2017-04-07T09:34:58.342Z,87.36
2017-04-07T09:36:07.298Z,87.6
2017-04-07T09:37:16.594Z,87.69
2017-04-07T09:38:25.544Z,87.5
2017-04-07T09:39:34.497Z,87.02
2017-04-07T09:40:43.452Z,88.17
2017-04-07T09:41:52.487Z,88.41
2017-04-07T09:43:01.694Z,88.55
2017-04-07T09:44:10.644Z,87.6
2017-04-07T09:45:19.601Z,87.88
2017-04-07T09:46:28.557Z,88.45
2017-04-07T09:47:37.505Z,88.17
2017-04-07T09:48:46.802Z,88.45
2017-04-07T09:49:55.754Z,88.45
2017-04-07T09:51:04.791Z,88.55
2017-04-07T09:52:13.745Z,88.93
2017-04-07T09:53:22.694Z,89.98
2017-04-07T09:54:32.031Z,89.79
2017-04-07T09:55:40.980Z,89.31
2017-04-07T09:56:49.935Z,88.17
2017-04-07T09:57:58.889Z,88.17
2017-04-07T09:59:07.848Z,89.4
2017-04-07T10:00:17.049Z,88.64
2017-04-07T10:01:26.108Z,88.07
2017-04-07T10:02:35.094Z,88.74
2017-04-07T10:03:44.046Z,88.55
2017-04-07T10:04:53.031Z,88.55
2017-04-07T10:06:02.245Z,88.26
2017-04-07T10:07:11.202Z,87.31
2017-04-07T10:08:20.158Z,87.21
2017-04-07T10:09:29.107Z,87.88
2017-04-07T10:10:38.056Z,86.83
2017-04-07T10:11:47.372Z,86.26
2017-04-07T10:12:56.322Z,86.45
2017-04-07T10:14:05.277Z,86.36
2017-04-07T10:15:14.229Z,86.74
2017-04-07T10:16:23.179Z,87.4
2017-04-07T10:17:32.435Z,87.21
2017-04-07T10:18:41.475Z,87.98
2017-04-07T10:19:50.433Z,87.12
2017-04-07T10:20:59.383Z,86.83
2017-04-07T10:22:08.339Z,86.93
2017-04-07T10:23:17.544Z,87.12
2017-04-07T10:24:26.497Z,87.21
2017-04-07T10:25:35.455Z,87.02
2017-04-07T10:26:44.403Z,86.26
2017-04-07T10:27:53.351Z,86.83
2017-04-07T10:29:02.553Z,85.64
2017-04-07T10:30:11.678Z,86.21
2017-04-07T10:31:21.047Z,87.12
2017-04-07T10:32:30.007Z,86.59
2017-04-07T10:33:38.959Z,86.11
2017-04-07T10:34:48.213Z,87.26
2017-04-07T10:35:57.166Z,87.45
2017-04-07T10:37:06.122Z,87.74
2017-04-07T10:38:15.074Z,86.4
2017-04-07T10:39:24.030Z,87.26
2017-04-07T10:40:33.283Z,86.49
2017-04-07T10:41:42.240Z,85.93
2017-04-07T10:42:51.279Z,86.4
2017-04-07T10:44:00.316Z,86.11
2017-04-07T10:45:09.273Z,86.4
2017-04-07T10:46:18.566Z,85.73
2017-04-07T10:47:27.520Z,85.45
2017-04-07T10:48:36.481Z,85.93
2017-04-07T10:49:45.440Z,86.49
2017-04-07T10:50:54.399Z,85.25
2017-04-07T10:52:03.655Z,85.45
2017-04-07T10:53:12.606Z,84.78
2017-04-07T10:54:21.564Z,83.54
2017-04-07T10:55:30.516Z,83.54
2017-04-07T10:56:39.469Z,84.49
2017-04-07T10:57:48.722Z,84.59
2017-04-07T10:58:57.677Z,84.3
2017-04-07T11:00:06.643Z,84.88
2017-04-07T11:01:15.597Z,84.59
2017-04-07T11:02:24.554Z,83.44
2017-04-07T11:03:33.754Z,83.73
2017-04-07T11:04:42.708Z,84.49
2017-04-07T11:05:51.674Z,84.01
2017-04-07T11:07:00.629Z,84.4
2017-04-07T11:08:09.582Z,83.58
2017-04-07T11:09:18.786Z,84.06
2017-04-07T11:10:27.824Z,82.91
2017-04-07T11:11:36.782Z,82.43
2017-04-07T11:12:45.732Z,82.82
2017-04-07T11:13:54.682Z,83.77
2017-04-07T11:15:03.885Z,84.16
2017-04-07T11:16:12.935Z,83.2
2017-04-07T11:17:21.884Z,83.48
2017-04-07T11:18:30.841Z,83.11
2017-04-07T11:19:39.794Z,82.91
2017-04-07T11:20:48.999Z,84.06
2017-04-07T11:21:57.953Z,83.29
2017-04-07T11:23:06.909Z,81.77
2017-04-07T11:24:15.866Z,83.58
2017-04-07T11:25:24.817Z,83.11
2017-04-07T11:26:34.061Z,83.29
2017-04-07T11:27:43.339Z,83.2
2017-04-07T11:28:52.330Z,82.24
2017-04-07T11:30:01.285Z,81.58
2017-04-07T11:31:10.328Z,82.15
2017-04-07T11:32:19.529Z,83.39
2017-04-07T11:33:28.484Z,83.58
2017-04-07T11:34:37.521Z,83.77
2017-04-07T11:35:46.476Z,83.87
2017-04-07T11:36:55.438Z,82.43
2017-04-07T11:38:04.649Z,82.34
2017-04-07T11:39:13.614Z,83.48
2017-04-07T11:40:22.567Z,84.44
2017-04-07T11:41:31.521Z,82.82
2017-04-07T11:42:40.484Z,83.01
2017-04-07T11:43:49.774Z,83.77
2017-04-07T11:44:58.734Z,82.53
2017-04-07T11:46:08.026Z,83.2
2017-04-07T11:47:16.976Z,83.58
2017-04-07T11:48:25.931Z,83.96
2017-04-07T11:49:35.139Z,84.16
2017-04-07T11:50:44.093Z,84.63
2017-04-07T11:51:53.052Z,84.25
2017-04-07T11:53:02.008Z,83.48
2017-04-07T11:54:10.966Z,83.48
2017-04-07T11:55:20.183Z,83.01
2017-04-07T11:56:29.232Z,83.96
2017-04-07T11:57:38.278Z,84.25
2017-04-07T11:58:47.242Z,85.3
2017-04-07T11:59:56.204Z,85.68
2017-04-07T12:01:05.416Z,85.58
2017-04-07T12:02:14.459Z,85.68
2017-04-07T12:03:23.427Z,86.54
2017-04-07T12:04:32.381Z,86.35
2017-04-07T12:05:41.339Z,85.49
2017-04-07T12:06:50.557Z,86.25
2017-04-07T12:07:59.510Z,86.35
2017-04-07T12:09:08.466Z,86.44
2017-04-07T12:10:17.423Z,84.82
2017-04-07T12:11:26.375Z,84.34
2017-04-07T12:12:35.634Z,84.92
2017-04-07T12:13:44.589Z,85.11
2017-04-07T12:14:53.540Z,85.58
2017-04-07T12:16:02.498Z,85.11
2017-04-07T12:17:11.545Z,85.01
2017-04-07T12:18:20.802Z,85.11
2017-04-07T12:19:29.762Z,85.49
2017-04-07T12:20:38.722Z,84.82
2017-04-07T12:21:47.691Z,85.49
2017-04-07T12:22:56.651Z,85.87
2017-04-07T12:24:05.859Z,85.68
2017-04-07T12:25:14.817Z,85.21
2017-04-07T12:26:23.859Z,85.97
2017-04-07T12:27:32.820Z,86.54
2017-04-07T12:28:41.781Z,87.02
2017-04-07T12:29:51.040Z,86.16
2017-04-07T12:31:00.083Z,86.92
2017-04-07T12:32:09.040Z,87.21
2017-04-07T12:33:18.000Z,85.97
2017-04-07T12:34:26.958Z,86.25
2017-04-07T12:35:36.162Z,85.39
2017-04-07T12:36:45.117Z,86.54
2017-04-07T12:37:54.075Z,85.53
2017-04-07T12:39:03.066Z,86.44
2017-04-07T12:40:12.344Z,85.77
2017-04-07T12:41:21.550Z,86.82
2017-04-07T12:42:30.595Z,87.49
2017-04-07T12:43:39.561Z,87.54
2017-04-07T12:44:48.527Z,87.92
2017-04-07T12:45:57.482Z,87.54
2017-04-07T12:47:06.741Z,87.21
2017-04-07T12:48:15.790Z,86.25
2017-04-07T12:49:24.925Z,86.35
2017-04-07T12:50:33.881Z,86.25
2017-04-07T12:51:42.845Z,85.87
2017-04-07T12:52:52.055Z,85.49
2017-04-07T12:54:01.010Z,86.35
2017-04-07T12:55:10.310Z,85.77
2017-04-07T12:56:19.258Z,86.06
2017-04-07T12:57:28.298Z,86.54
2017-04-07T12:58:37.561Z,86.16
2017-04-07T12:59:46.513Z,86.35
2017-04-07T13:00:55.472Z,87.11
2017-04-07T13:02:04.431Z,87.4
2017-04-07T13:03:13.385Z,87.49
2017-04-07T13:04:22.596Z,87.68
2017-04-07T13:05:31.637Z,87.11
2017-04-07T13:06:40.592Z,86.54
2017-04-07T13:07:49.553Z,86.16
2017-04-07T13:08:58.509Z,86.73
2017-04-07T13:10:07.770Z,87.21
2017-04-07T13:11:16.729Z,86.73
2017-04-07T13:12:25.771Z,87.3
2017-04-07T13:13:34.728Z,87.92
2017-04-07T13:14:43.684Z,87.49
2017-04-07T13:15:52.885Z,87.59
2017-04-07T13:17:02.600Z,87.63
2017-04-07T13:18:11.643Z,86.2
2017-04-07T13:19:20.595Z,86.77
2017-04-07T13:20:29.569Z,87.15
2017-04-07T13:21:38.825Z,86.2
2017-04-07T13:22:47.779Z,85.05
2017-04-07T13:23:56.757Z,86.01
2017-04-07T13:25:05.716Z,86.54
2017-04-07T13:26:14.672Z,87.25
2017-04-07T13:27:23.877Z,88.2
2017-04-07T13:28:32.837Z,87.73
2017-04-07T13:29:41.795Z,88.3
2017-04-07T13:30:50.843Z,86.68
2017-04-07T13:31:59.799Z,86.39
2017-04-07T13:33:09.041Z,86.2
2017-04-07T13:34:18.095Z,85.72
2017-04-07T13:35:27.057Z,85.44
2017-04-07T13:36:36.011Z,84
2017-04-07T13:37:45.058Z,84.58
2017-04-07T13:38:54.582Z,85.68
2017-04-07T13:40:03.543Z,85.97
2017-04-07T13:41:12.502Z,85.82
2017-04-07T13:42:21.461Z,86.3
2017-04-07T13:43:30.419Z,85.72
2017-04-07T13:44:39.950Z,85.91
2017-04-07T13:45:48.911Z,85.63
2017-04-07T13:46:57.879Z,86.77
2017-04-07T13:48:06.835Z,86.77
2017-04-07T13:49:15.797Z,86.39
2017-04-07T13:50:25.009Z,86.68
2017-04-07T13:51:33.969Z,86.49
2017-04-07T13:52:42.926Z,86.96
2017-04-07T13:53:52.201Z,85.05
2017-04-07T13:55:01.162Z,85.05
2017-04-07T13:56:10.374Z,84.96
2017-04-07T13:57:19.326Z,85.25
2017-04-07T13:58:28.286Z,84.58
2017-04-07T13:59:37.240Z,85.44
2017-04-07T14:00:46.195Z,84.52
2017-04-07T14:01:55.454Z,84.48
2017-04-07T14:03:04.413Z,83.72
2017-04-07T14:04:13.368Z,84.58
2017-04-07T14:05:22.323Z,84.43
2017-04-07T14:06:31.275Z,85.53
2017-04-07T14:07:40.485Z,84.23
2017-04-07T14:08:49.445Z,83.57
2017-04-07T14:09:58.483Z,84.43
2017-04-07T14:11:07.465Z,83.76
2017-04-07T14:12:16.416Z,84.05
2017-04-07T14:13:25.676Z,84.33
2017-04-07T14:14:34.954Z,82.71
2017-04-07T14:15:43.997Z,83.09
2017-04-07T14:16:52.956Z,83.67
2017-04-07T14:18:01.913Z,85.48
2017-04-07T14:19:11.205Z,83.67
2017-04-07T14:20:20.165Z,83.28
2017-04-07T14:21:29.129Z,84.43
2017-04-07T14:22:38.089Z,85
2017-04-07T14:23:47.046Z,85.1
2017-04-07T14:24:56.249Z,84.43
2017-04-07T14:26:05.530Z,84.72
2017-04-07T14:27:14.495Z,85.67
2017-04-07T14:28:23.447Z,85.86
2017-04-07T14:29:32.490Z,85
2017-04-07T14:30:41.700Z,84.33
2017-04-07T14:31:50.657Z,84.23
2017-04-07T14:32:59.620Z,84.23
2017-04-07T14:34:08.575Z,85.19
2017-04-07T14:35:17.535Z,85.48
2017-04-07T14:36:26.737Z,84.43
2017-04-07T14:37:35.691Z,85.29
2017-04-07T14:38:44.645Z,85.19
2017-04-07T14:39:53.690Z,85.86
2017-04-07T14:41:02.646Z,83.95
2017-04-07T14:42:11.864Z,85.29
2017-04-07T14:43:20.911Z,86.82
2017-04-07T14:44:29.870Z,86.63
2017-04-07T14:45:38.921Z,86.05
2017-04-07T14:46:47.904Z,85.67
2017-04-07T14:47:57.109Z,84.81
2017-04-07T14:49:06.398Z,84.39
2017-04-07T14:50:15.357Z,85.1
2017-04-07T14:51:24.315Z,85.05
2017-04-07T14:52:33.269Z,85.63